Time;durP1;ratioP1;P1;durP2;ratioP2;P2;SDS_P1;SDS_P2;PMS_P1;PMS_P2;Temp;Humidity;BMP_temperature;BMP_pressure;BME280_temperature;BME280_humidity;BME280_pressure;Samples;Min_cycle;Max_cycle;Signal;HPM_P1;HPM_P2
2022/11/23 00:03:20;;;;;;;;;;;16.80;46.40;;;;;;8333692;28;19921;-44
2022/11/23 00:07:21;;;;;;;;;;;16.80;46.40;;;;;;8332497;28;20456;-44
2022/11/23 00:11:22;;;;;;;;;;;16.80;46.40;;;;;;8333066;28;19917;-44
2022/11/23 00:15:22;;;;;;;;;;;16.80;46.40;;;;;;8332788;28;19913;-45
2022/11/23 00:19:23;;;;;;;;;;;16.80;46.40;;;;;;8332104;28;19929;-44
2022/11/23 00:23:23;;;;;;;;;;;16.80;46.40;;;;;;8332924;28;19913;-44
2022/11/23 00:27:24;;;;;;;;;;;16.80;46.40;;;;;;8332134;28;20378;-44
2022/11/23 00:31:24;;;;;;;;;;;16.80;46.40;;;;;;8332292;28;19917;-45
2022/11/23 00:35:25;;;;;;;;;;;16.80;46.40;;;;;;8332194;28;20051;-44
2022/11/23 00:39:25;;;;;;;;;;;16.80;46.40;;;;;;8331362;28;19933;-44
2022/11/23 00:43:27;;;;;;;;;;;16.80;46.40;;;;;;8332311;28;20294;-45
2022/11/23 00:47:27;;;;;;;;;;;16.80;46.40;;;;;;8332087;28;19921;-44
2022/11/23 00:51:29;;;;;;;;;;;16.80;46.40;;;;;;8331350;28;20047;-45
2022/11/23 00:55:29;;;;;;;;;;;16.80;46.40;;;;;;8332001;28;20012;-44
2022/11/23 00:59:29;;;;;;;;;;;16.80;46.50;;;;;;8331654;28;19921;-45
2022/11/23 01:03:30;;;;;;;;;;;16.70;46.40;;;;;;8330851;28;19986;-45
2022/11/23 01:07:31;;;;;;;;;;;16.80;46.40;;;;;;8331586;28;20004;-45
2022/11/23 01:11:31;;;;;;;;;;;16.70;46.50;;;;;;8331397;28;19963;-43
2022/11/23 01:15:32;;;;;;;;;;;16.70;46.40;;;;;;8330714;28;19974;-44
2022/11/23 01:19:32;;;;;;;;;;;16.70;46.40;;;;;;8330975;28;19921;-43
2022/11/23 01:23:33;;;;;;;;;;;16.70;46.40;;;;;;8331160;28;19917;-44
2022/11/23 01:27:34;;;;;;;;;;;16.70;46.40;;;;;;8330521;28;20052;-44
2022/11/23 01:31:34;;;;;;;;;;;16.70;46.40;;;;;;8330698;28;19928;-44
2022/11/23 01:35:35;;;;;;;;;;;16.70;46.40;;;;;;8330522;28;19914;-44
2022/11/23 01:39:35;;;;;;;;;;;16.70;46.40;;;;;;8330035;28;19933;-48
2022/11/23 01:43:35;;;;;;;;;;;16.70;46.40;;;;;;8330701;28;19917;-45
2022/11/23 01:47:36;;;;;;;;;;;16.70;46.40;;;;;;8330298;28;19971;-45
2022/11/23 01:51:39;;;;;;;;;;;16.70;46.40;;;;;;8329909;28;19920;-45
2022/11/23 01:55:40;;;;;;;;;;;16.70;46.40;;;;;;8330412;28;20289;-45
2022/11/23 01:59:40;;;;;;;;;;;16.70;46.40;;;;;;8330021;28;20378;-45
2022/11/23 02:03:42;;;;;;;;;;;16.70;46.40;;;;;;8329444;28;19924;-44
2022/11/23 02:07:42;;;;;;;;;;;16.70;46.40;;;;;;8353609;28;20378;-44
2022/11/23 02:11:43;;;;;;;;;;;16.70;46.40;;;;;;8346072;28;19921;-44
2022/11/23 02:15:44;;;;;;;;;;;16.70;46.40;;;;;;8332007;28;19929;-43
2022/11/23 02:19:56;;;;;;;;;;;16.70;46.40;;;;;;8336903;28;19995;-44
2022/11/23 02:24:03;;;;;;;;;;;16.70;46.40;;;;;;8336776;28;19918;-44
2022/11/23 02:28:04;;;;;;;;;;;16.70;46.40;;;;;;8335896;28;20406;-44
2022/11/23 02:32:04;;;;;;;;;;;16.60;46.30;;;;;;8336171;28;19917;-44
2022/11/23 02:36:23;;;;;;;;;;;16.60;46.30;;;;;;8336335;28;19917;-44
2022/11/23 02:40:26;;;;;;;;;;;16.60;46.30;;;;;;8335560;28;19929;-44
2022/11/23 02:44:40;;;;;;;;;;;16.60;46.90;;;;;;8336196;28;19983;-44
2022/11/23 02:48:40;;;;;;;;;;;16.60;46.40;;;;;;8335210;28;19917;-44
2022/11/23 02:52:41;;;;;;;;;;;16.60;46.30;;;;;;8335466;28;19933;-45
2022/11/23 02:56:42;;;;;;;;;;;16.60;46.40;;;;;;8335617;28;19925;-44
2022/11/23 03:00:42;;;;;;;;;;;16.60;46.40;;;;;;8334891;28;20019;-44
2022/11/23 03:04:42;;;;;;;;;;;16.60;46.30;;;;;;8335706;28;19913;-44
2022/11/23 03:08:43;;;;;;;;;;;16.60;46.30;;;;;;8333755;28;19921;-44
2022/11/23 03:12:43;;;;;;;;;;;16.60;46.30;;;;;;8332507;28;19925;-44
2022/11/23 03:16:44;;;;;;;;;;;16.60;46.30;;;;;;8332726;28;20282;-44
2022/11/23 03:20:44;;;;;;;;;;;16.60;46.30;;;;;;8332731;28;20413;-45
2022/11/23 03:24:45;;;;;;;;;;;16.60;46.30;;;;;;8332437;28;19964;-44
2022/11/23 03:28:45;;;;;;;;;;;16.60;46.30;;;;;;8332195;28;19917;-44
2022/11/23 03:32:45;;;;;;;;;;;16.60;46.30;;;;;;8332551;28;19917;-45
2022/11/23 03:36:46;;;;;;;;;;;16.60;46.30;;;;;;8331880;28;19928;-44
2022/11/23 03:40:47;;;;;;;;;;;16.60;46.30;;;;;;8332271;28;19913;-44
2022/11/23 03:44:47;;;;;;;;;;;16.50;46.30;;;;;;8332265;28;19947;-46
2022/11/23 03:48:47;;;;;;;;;;;16.60;46.30;;;;;;8331670;28;20295;-45
2022/11/23 03:52:48;;;;;;;;;;;16.60;46.30;;;;;;8331888;28;20449;-45
2022/11/23 03:56:49;;;;;;;;;;;16.60;46.30;;;;;;8331736;28;19921;-45
2022/11/23 04:00:49;;;;;;;;;;;16.60;46.30;;;;;;8331233;28;20026;-45
2022/11/23 04:04:49;;;;;;;;;;;16.60;46.30;;;;;;8332182;28;20220;-45
2022/11/23 04:08:50;;;;;;;;;;;16.60;46.30;;;;;;8271994;28;1740750;-45
2022/11/23 04:12:51;;;;;;;;;;;16.60;46.30;;;;;;8333142;28;19917;-46
2022/11/23 04:16:51;;;;;;;;;;;16.50;46.30;;;;;;8333877;28;19921;-45
2022/11/23 04:20:52;;;;;;;;;;;16.50;46.30;;;;;;8333488;28;19921;-45
2022/11/23 04:24:52;;;;;;;;;;;16.60;46.40;;;;;;8332487;28;19917;-45
2022/11/23 04:28:53;;;;;;;;;;;16.60;46.30;;;;;;8332612;28;19917;-45
2022/11/23 04:32:53;;;;;;;;;;;16.60;46.30;;;;;;8332290;28;19996;-45
2022/11/23 04:36:54;;;;;;;;;;;16.50;46.20;;;;;;8331360;28;20340;-45
2022/11/23 04:40:54;;;;;;;;;;;16.50;46.20;;;;;;8331975;28;19913;-44
2022/11/23 04:44:56;;;;;;;;;;;16.50;46.30;;;;;;8332341;28;19948;-45
2022/11/23 04:48:56;;;;;;;;;;;16.50;46.20;;;;;;8331553;28;20012;-45
2022/11/23 04:52:57;;;;;;;;;;;16.50;46.20;;;;;;8331999;28;19921;-44
2022/11/23 04:56:57;;;;;;;;;;;16.50;46.20;;;;;;8331655;28;19925;-45
2022/11/23 05:00:58;;;;;;;;;;;16.50;46.10;;;;;;8331110;28;19924;-44
2022/11/23 05:04:58;;;;;;;;;;;16.50;46.10;;;;;;8330165;28;20304;-44
2022/11/23 05:08:59;;;;;;;;;;;16.50;46.10;;;;;;8331173;28;19929;-46
2022/11/23 05:12:59;;;;;;;;;;;16.50;46.10;;;;;;8330838;28;20370;-44
2022/11/23 05:17:00;;;;;;;;;;;16.50;46.00;;;;;;8331282;28;19936;-45
2022/11/23 05:21:00;;;;;;;;;;;16.50;46.10;;;;;;8331119;28;19932;-44
2022/11/23 05:25:01;;;;;;;;;;;16.50;46.00;;;;;;8330654;28;20011;-44
2022/11/23 05:29:01;;;;;;;;;;;16.50;46.00;;;;;;8330889;28;19917;-44
2022/11/23 05:33:02;;;;;;;;;;;16.50;46.00;;;;;;8330767;28;20063;-44
2022/11/23 05:37:02;;;;;;;;;;;16.50;46.00;;;;;;8329999;28;19936;-44
2022/11/23 05:41:03;;;;;;;;;;;16.50;46.00;;;;;;8330890;28;19974;-44
2022/11/23 05:45:04;;;;;;;;;;;16.50;46.00;;;;;;8330515;28;20321;-44
2022/11/23 05:49:04;;;;;;;;;;;16.50;46.00;;;;;;8329843;28;19917;-44
2022/11/23 05:53:05;;;;;;;;;;;16.50;46.00;;;;;;8330412;28;19917;-44
2022/11/23 05:57:05;;;;;;;;;;;16.50;45.90;;;;;;8330157;28;19928;-44
2022/11/23 06:01:06;;;;;;;;;;;16.50;45.90;;;;;;8329954;28;20575;-44
2022/11/23 06:05:07;;;;;;;;;;;16.50;45.90;;;;;;8330194;28;19927;-44
2022/11/23 06:09:07;;;;;;;;;;;16.50;45.90;;;;;;8329851;28;19936;-44
2022/11/23 06:13:08;;;;;;;;;;;16.50;45.90;;;;;;8329961;28;19932;-44
2022/11/23 06:17:08;;;;;;;;;;;16.50;45.90;;;;;;8330021;28;19928;-43
2022/11/23 06:21:08;;;;;;;;;;;16.50;45.90;;;;;;8347432;28;19916;-43
2022/11/23 06:25:09;;;;;;;;;;;16.50;45.90;;;;;;8330908;28;19956;-44
2022/11/23 06:29:09;;;;;;;;;;;16.50;45.90;;;;;;8329510;28;19924;-44
2022/11/23 06:33:10;;;;;;;;;;;16.50;45.80;;;;;;8329607;28;19913;-43
2022/11/23 06:37:10;;;;;;;;;;;16.50;45.90;;;;;;8328898;28;19925;-43
2022/11/23 06:41:11;;;;;;;;;;;16.40;45.80;;;;;;8329589;28;19928;-44
2022/11/23 06:45:11;;;;;;;;;;;16.40;45.80;;;;;;8329330;28;19917;-44
2022/11/23 06:49:12;;;;;;;;;;;16.50;45.80;;;;;;8328871;28;19978;-44
2022/11/23 06:53:12;;;;;;;;;;;16.40;45.80;;;;;;8329265;28;19921;-43
2022/11/23 06:57:13;;;;;;;;;;;16.40;45.80;;;;;;8329036;28;19948;-43
2022/11/23 07:01:13;;;;;;;;;;;16.50;45.80;;;;;;8330472;28;20001;-44
2022/11/23 07:05:13;;;;;;;;;;;16.40;45.80;;;;;;8335298;28;19971;-44
2022/11/23 07:09:14;;;;;;;;;;;16.40;45.80;;;;;;8334964;28;19921;-44
2022/11/23 07:13:15;;;;;;;;;;;16.40;45.80;;;;;;8334752;28;19918;-44
2022/11/23 07:17:15;;;;;;;;;;;16.40;45.80;;;;;;8334831;28;19925;-44
2022/11/23 07:21:15;;;;;;;;;;;16.40;45.80;;;;;;8334875;28;19967;-44
2022/11/23 07:25:17;;;;;;;;;;;16.40;45.80;;;;;;8334133;28;19929;-44
2022/11/23 07:29:18;;;;;;;;;;;16.40;45.80;;;;;;8334637;28;19921;-44
2022/11/23 07:33:18;;;;;;;;;;;16.40;45.80;;;;;;8334483;28;20334;-45
2022/11/23 07:37:19;;;;;;;;;;;16.40;45.80;;;;;;8334041;28;19929;-44
2022/11/23 07:41:19;;;;;;;;;;;16.40;45.80;;;;;;8334309;28;20301;-44
2022/11/23 07:45:21;;;;;;;;;;;16.40;45.70;;;;;;8334118;28;19917;-46
2022/11/23 07:49:22;;;;;;;;;;;16.40;45.70;;;;;;8333402;28;20378;-44
2022/11/23 07:53:22;;;;;;;;;;;16.40;45.80;;;;;;8333717;28;19917;-44
2022/11/23 07:57:23;;;;;;;;;;;16.40;45.70;;;;;;8333661;28;19925;-45
2022/11/23 08:01:23;;;;;;;;;;;16.40;45.70;;;;;;8333183;28;19913;-44
2022/11/23 08:05:25;;;;;;;;;;;16.40;45.80;;;;;;8332362;28;19925;-44
2022/11/23 08:09:25;;;;;;;;;;;16.40;45.70;;;;;;8332741;28;20036;-45
2022/11/23 08:13:26;;;;;;;;;;;16.40;45.80;;;;;;8332316;28;19917;-44
2022/11/23 08:17:26;;;;;;;;;;;16.40;45.70;;;;;;8332826;28;20003;-44
2022/11/23 08:21:27;;;;;;;;;;;16.40;45.80;;;;;;8332623;28;19913;-44
2022/11/23 08:25:28;;;;;;;;;;;16.40;45.70;;;;;;8332620;28;20397;-44
2022/11/23 08:29:29;;;;;;;;;;;16.40;45.80;;;;;;8332664;28;19917;-45
2022/11/23 08:33:29;;;;;;;;;;;16.40;45.70;;;;;;8332217;28;20106;-44
2022/11/23 08:37:30;;;;;;;;;;;16.40;45.70;;;;;;8332181;28;19925;-44
2022/11/23 08:41:30;;;;;;;;;;;16.40;45.70;;;;;;8332367;28;19913;-44
2022/11/23 08:45:31;;;;;;;;;;;16.40;45.70;;;;;;8331487;28;19917;-44
2022/11/23 08:49:31;;;;;;;;;;;16.40;45.70;;;;;;8331857;28;20405;-44
2022/11/23 08:53:32;;;;;;;;;;;16.40;45.70;;;;;;8331753;28;19924;-45
2022/11/23 08:57:32;;;;;;;;;;;16.40;45.70;;;;;;8331242;28;19975;-44
2022/11/23 09:01:32;;;;;;;;;;;16.40;45.70;;;;;;8331728;28;19952;-44
2022/11/23 09:05:36;;;;;;;;;;;16.40;45.70;;;;;;8331489;28;19917;-44
2022/11/23 09:09:36;;;;;;;;;;;16.40;45.70;;;;;;8330722;28;20638;-44
2022/11/23 09:13:37;;;;;;;;;;;16.40;45.70;;;;;;8331573;28;19921;-46
2022/11/23 09:17:37;;;;;;;;;;;16.40;45.80;;;;;;8331193;28;20374;-46
2022/11/23 09:21:38;;;;;;;;;;;16.40;45.70;;;;;;8330839;28;19921;-43
2022/11/23 09:25:39;;;;;;;;;;;16.40;45.80;;;;;;8330376;28;19953;-45
2022/11/23 09:29:39;;;;;;;;;;;16.40;45.80;;;;;;8330895;28;19925;-44
2022/11/23 09:33:40;;;;;;;;;;;16.50;45.90;;;;;;8330290;28;19921;-46
2022/11/23 09:37:40;;;;;;;;;;;16.40;45.80;;;;;;8331031;28;19925;-45
2022/11/23 09:41:43;;;;;;;;;;;16.50;45.80;;;;;;8330494;28;19952;-45
2022/11/23 09:45:44;;;;;;;;;;;16.50;45.80;;;;;;8329915;28;19925;-44
2022/11/23 09:49:54;;;;;;;;;;;16.50;45.80;;;;;;8330589;28;19917;-44
2022/11/23 09:53:57;;;;;;;;;;;16.50;45.80;;;;;;8330307;28;19917;-45
2022/11/23 09:58:01;;;;;;;;;;;16.50;45.80;;;;;;8329788;28;20312;-47
2022/11/23 10:02:01;;;;;;;;;;;16.40;45.80;;;;;;8330346;28;20058;-45
2022/11/23 10:06:17;;;;;;;;;;;16.50;45.90;;;;;;8330188;28;19917;-44
2022/11/23 10:10:25;;;;;;;;;;;16.50;45.80;;;;;;8329377;28;19963;-43
2022/11/23 10:14:41;;;;;;;;;;;16.50;45.80;;;;;;8329872;28;19943;-44
2022/11/23 10:18:47;;;;;;;;;;;16.50;45.80;;;;;;8329504;28;19932;-45
2022/11/23 10:22:55;;;;;;;;;;;16.50;45.80;;;;;;8330455;28;20317;-44
2022/11/23 10:26:56;;;;;;;;;;;16.50;45.90;;;;;;8329820;28;19917;-44
2022/11/23 10:31:03;;;;;;;;;;;16.50;45.80;;;;;;8329322;28;20388;-45
2022/11/23 10:35:14;;;;;;;;;;;16.50;45.80;;;;;;8329623;28;19971;-45
2022/11/23 10:39:25;;;;;;;;;;;16.50;45.80;;;;;;8335943;28;19929;-45
2022/11/23 10:43:28;;;;;;;;;;;16.50;45.80;;;;;;8335747;28;19939;-47
2022/11/23 10:47:48;;;;;;;;;;;16.50;45.90;;;;;;8335998;28;19917;-45
2022/11/23 10:51:50;;;;;;;;;;;16.50;45.90;;;;;;8335345;28;19924;-45
2022/11/23 10:55:57;;;;;;;;;;;16.50;45.80;;;;;;8335720;28;19940;-44
2022/11/23 10:59:59;;;;;;;;;;;16.50;45.90;;;;;;8335437;28;19925;-45
2022/11/23 11:04:02;;;;;;;;;;;16.60;45.90;;;;;;8330744;28;19977;-45
2022/11/23 11:08:12;;;;;;;;;;;16.50;45.80;;;;;;8335513;28;20440;-45
2022/11/23 11:12:19;;;;;;;;;;;16.60;45.90;;;;;;8337539;28;19917;-44
2022/11/23 11:16:29;;;;;;;;;;;16.60;45.90;;;;;;8334472;28;19921;-44
2022/11/23 11:20:31;;;;;;;;;;;16.60;45.90;;;;;;8334951;28;20768;-44
2022/11/23 11:24:34;;;;;;;;;;;16.60;45.90;;;;;;8334447;28;19914;-43
2022/11/23 11:28:37;;;;;;;;;;;16.50;45.80;;;;;;8334557;28;19999;-45
2022/11/23 11:32:47;;;;;;;;;;;16.60;45.80;;;;;;8334917;28;20395;-49
2022/11/23 11:37:07;;;;;;;;;;;16.60;45.80;;;;;;8326436;28;19921;-45
2022/11/23 11:41:11;;;;;;;;;;;16.60;45.80;;;;;;8344655;28;19917;-44
2022/11/23 11:45:16;;;;;;;;;;;16.60;46.30;;;;;;8333952;28;19913;-44
2022/11/23 11:49:30;;;;;;;;;;;16.60;45.80;;;;;;8329834;28;19917;-45
2022/11/23 11:53:53;;;;;;;;;;;16.60;45.80;;;;;;8340587;28;19924;-45
2022/11/23 11:57:58;;;;;;;;;;;16.60;45.80;;;;;;8325170;28;20016;-46
2022/11/23 12:02:06;;;;;;;;;;;16.60;45.80;;;;;;8333881;28;19924;-46
2022/11/23 12:06:09;;;;;;;;;;;16.60;45.80;;;;;;8333467;28;19913;-45
2022/11/23 12:10:18;;;;;;;;;;;16.60;45.80;;;;;;8332664;28;20302;-45
2022/11/23 12:14:19;;;;;;;;;;;16.60;45.70;;;;;;8333245;28;19917;-45
2022/11/23 12:18:31;;;;;;;;;;;16.60;45.80;;;;;;8333204;28;20294;-47
2022/11/23 12:22:35;;;;;;;;;;;16.60;45.80;;;;;;8332738;28;20001;-44
2022/11/23 12:26:42;;;;;;;;;;;16.60;45.70;;;;;;8332615;28;19921;-46
2022/11/23 12:30:49;;;;;;;;;;;16.60;45.70;;;;;;8332276;28;19917;-44
2022/11/23 12:34:57;;;;;;;;;;;16.60;45.70;;;;;;8332420;28;19917;-44
2022/11/23 12:39:11;;;;;;;;;;;16.60;45.70;;;;;;8332302;28;19925;-46
2022/11/23 12:43:13;;;;;;;;;;;16.70;45.80;;;;;;8332172;28;19917;-47
2022/11/23 12:47:14;;;;;;;;;;;16.70;45.70;;;;;;8332280;28;19917;-44
2022/11/23 12:51:15;;;;;;;;;;;16.60;45.70;;;;;;8332019;28;19917;-46
2022/11/23 12:55:36;;;;;;;;;;;16.70;45.80;;;;;;8331415;28;19917;-44
2022/11/23 12:59:59;;;;;;;;;;;16.70;45.80;;;;;;8330789;28;19925;-44
2022/11/23 13:04:18;;;;;;;;;;;16.70;45.80;;;;;;8331405;28;20009;-45
2022/11/23 13:08:36;;;;;;;;;;;16.70;45.80;;;;;;8331529;28;19921;-44
2022/11/23 13:12:52;;;;;;;;;;;16.60;45.70;;;;;;8331280;28;19963;-45
2022/11/23 13:17:03;;;;;;;;;;;16.70;45.80;;;;;;8331239;28;20302;-44
2022/11/23 13:21:04;;;;;;;;;;;16.70;45.70;;;;;;8331211;28;19913;-44
2022/11/23 13:25:19;;;;;;;;;;;16.70;45.70;;;;;;8330351;28;19924;-47
2022/11/23 13:29:43;;;;;;;;;;;16.70;45.70;;;;;;8331071;28;19952;-44
2022/11/23 13:33:44;;;;;;;;;;;16.70;45.70;;;;;;8302253;28;20002;-44
2022/11/23 13:37:57;;;;;;;;;;;16.70;45.80;;;;;;8330474;28;19925;-44
2022/11/23 13:42:00;;;;;;;;;;;16.70;45.80;;;;;;8330457;28;20454;-44
2022/11/23 13:46:06;;;;;;;;;;;16.70;45.80;;;;;;8330042;28;20378;-45
2022/11/23 13:50:08;;;;;;;;;;;16.70;45.80;;;;;;8330168;28;19913;-44
2022/11/23 13:54:19;;;;;;;;;;;16.70;45.80;;;;;;8330541;28;20385;-44
2022/11/23 13:58:22;;;;;;;;;;;16.60;45.80;;;;;;8329880;28;19925;-45
2022/11/23 14:02:25;;;;;;;;;;;16.70;45.80;;;;;;8330179;28;19917;-45
2022/11/23 14:06:28;;;;;;;;;;;16.60;45.80;;;;;;8323488;28;19913;-44
2022/11/23 14:10:30;;;;;;;;;;;16.70;45.90;;;;;;8332114;28;19917;-45
2022/11/23 14:15:09;;;;;;;;;;;16.70;45.80;;;;;;8337238;28;19996;-44
2022/11/23 14:19:32;;;;;;;;;;;16.70;45.80;;;;;;8235449;28;20323;-45
2022/11/23 14:23:51;;;;;;;;;;;16.70;45.80;;;;;;8273447;28;20359;-46
2022/11/23 14:27:52;;;;;;;;;;;16.70;45.80;;;;;;8330238;28;20392;-44
2022/11/23 14:32:14;;;;;;;;;;;16.70;45.80;;;;;;8336129;28;19917;-47
2022/11/23 14:36:18;;;;;;;;;;;16.60;45.80;;;;;;8347741;28;19917;-45
2022/11/23 14:40:45;;;;;;;;;;;16.70;45.80;;;;;;8363242;28;19925;-44
2022/11/23 14:44:46;;;;;;;;;;;16.70;45.80;;;;;;8312498;28;19996;-44
2022/11/23 14:48:47;;;;;;;;;;;16.60;45.80;;;;;;8335704;28;19913;-45
2022/11/23 14:52:48;;;;;;;;;;;16.70;45.90;;;;;;8335788;28;20392;-45
2022/11/23 14:56:50;;;;;;;;;;;16.60;45.80;;;;;;8335419;28;19924;-45
2022/11/23 15:00:51;;;;;;;;;;;16.60;45.90;;;;;;8335065;28;20354;-45
2022/11/23 15:04:55;;;;;;;;;;;16.70;45.90;;;;;;8335354;28;19913;-44
2022/11/23 15:09:02;;;;;;;;;;;16.60;45.80;;;;;;8335384;28;20440;-44
2022/11/23 15:13:14;;;;;;;;;;;16.60;45.90;;;;;;8334643;28;19924;-45
2022/11/23 15:17:15;;;;;;;;;;;16.70;45.90;;;;;;8334842;28;19929;-45
2022/11/23 15:21:18;;;;;;;;;;;16.60;45.90;;;;;;8334180;28;19917;-44
2022/11/23 15:25:19;;;;;;;;;;;16.70;45.90;;;;;;8334193;28;19979;-43
2022/11/23 15:29:36;;;;;;;;;;;16.60;45.90;;;;;;8334891;28;20352;-44
2022/11/23 15:33:36;;;;;;;;;;;16.60;45.90;;;;;;8334391;28;20283;-44
2022/11/23 15:37:46;;;;;;;;;;;16.60;45.90;;;;;;8334437;28;19933;-44
2022/11/23 15:41:47;;;;;;;;;;;16.60;46.40;;;;;;8334285;28;19913;-44
2022/11/23 15:45:47;;;;;;;;;;;16.60;46.00;;;;;;8333583;28;19924;-44
2022/11/23 15:49:48;;;;;;;;;;;16.60;46.00;;;;;;8334037;28;20370;-44
2022/11/23 15:53:49;;;;;;;;;;;16.60;46.00;;;;;;8333757;28;19924;-44
2022/11/23 15:57:53;;;;;;;;;;;16.60;46.00;;;;;;8333126;28;20366;-46
2022/11/23 16:01:54;;;;;;;;;;;16.60;46.00;;;;;;8333382;28;19996;-45
2022/11/23 16:06:07;;;;;;;;;;;16.60;46.00;;;;;;8333300;28;19920;-45
2022/11/23 16:10:30;;;;;;;;;;;16.60;46.00;;;;;;8333097;28;19927;-45
2022/11/23 16:14:33;;;;;;;;;;;16.60;46.00;;;;;;8333134;28;19928;-46
2022/11/23 16:18:34;;;;;;;;;;;16.60;46.00;;;;;;8332430;28;19925;-43
2022/11/23 16:22:36;;;;;;;;;;;16.60;46.00;;;;;;8332696;28;20009;-45
2022/11/23 16:26:37;;;;;;;;;;;16.60;46.00;;;;;;8332945;28;19961;-45
2022/11/23 16:30:40;;;;;;;;;;;16.60;46.00;;;;;;8332148;28;19999;-46
2022/11/23 16:34:41;;;;;;;;;;;16.60;46.10;;;;;;8331564;28;19921;-45
2022/11/23 16:38:41;;;;;;;;;;;16.60;46.00;;;;;;8332299;28;20397;-45
2022/11/23 16:42:46;;;;;;;;;;;16.60;46.00;;;;;;8331552;28;19936;-45
2022/11/23 16:46:46;;;;;;;;;;;16.60;46.00;;;;;;8332110;28;20370;-45
2022/11/23 16:50:46;;;;;;;;;;;16.60;46.10;;;;;;8331992;28;19924;-44
2022/11/23 16:54:47;;;;;;;;;;;16.60;46.00;;;;;;8331707;28;20332;-45
2022/11/23 16:58:48;;;;;;;;;;;16.60;46.00;;;;;;8321279;28;19925;-45
2022/11/23 17:02:48;;;;;;;;;;;16.60;46.00;;;;;;8300364;28;19972;-43
2022/11/23 17:06:49;;;;;;;;;;;16.60;46.10;;;;;;8317622;28;19928;-45
2022/11/23 17:10:49;;;;;;;;;;;16.60;46.10;;;;;;8308928;28;19928;-45
2022/11/23 17:14:50;;;;;;;;;;;16.60;46.10;;;;;;8331605;28;19927;-45
2022/11/23 17:18:50;;;;;;;;;;;16.60;46.10;;;;;;8306664;28;20301;-45
2022/11/23 17:22:51;;;;;;;;;;;16.60;46.10;;;;;;8320982;28;20286;-45
2022/11/23 17:26:52;;;;;;;;;;;16.60;46.10;;;;;;8343016;28;20278;-44
2022/11/23 17:30:52;;;;;;;;;;;16.60;46.10;;;;;;8311374;28;20326;-44
2022/11/23 17:34:53;;;;;;;;;;;16.60;46.20;;;;;;8298431;28;19921;-45
2022/11/23 17:38:53;;;;;;;;;;;16.50;46.10;;;;;;8307582;28;19932;-45
2022/11/23 17:42:54;;;;;;;;;;;16.60;46.20;;;;;;8330144;28;20412;-45
2022/11/23 17:46:56;;;;;;;;;;;16.60;46.20;;;;;;8324993;28;19917;-46
2022/11/23 17:50:56;;;;;;;;;;;16.60;46.20;;;;;;8299167;28;19949;-46
2022/11/23 17:54:57;;;;;;;;;;;16.60;46.20;;;;;;8308106;28;19996;-44
2022/11/23 17:58:57;;;;;;;;;;;16.60;46.30;;;;;;8306926;28;19925;-45
2022/11/23 18:02:58;;;;;;;;;;;16.60;46.30;;;;;;8313207;28;19921;-45
2022/11/23 18:06:58;;;;;;;;;;;16.60;46.30;;;;;;8324325;28;19932;-45
2022/11/23 18:10:59;;;;;;;;;;;16.60;46.30;;;;;;8307994;28;19924;-46
2022/11/23 18:15:00;;;;;;;;;;;16.50;46.30;;;;;;8330235;28;19946;-45
2022/11/23 18:19:00;;;;;;;;;;;16.50;46.30;;;;;;8328402;28;19971;-46
2022/11/23 18:23:01;;;;;;;;;;;16.60;46.30;;;;;;8321656;28;19921;-47
2022/11/23 18:27:01;;;;;;;;;;;16.50;46.30;;;;;;8301411;28;19922;-45
2022/11/23 18:31:02;;;;;;;;;;;16.60;46.30;;;;;;8296956;28;19984;-45
2022/11/23 18:35:03;;;;;;;;;;;16.50;46.30;;;;;;8320525;28;19917;-45
2022/11/23 18:39:05;;;;;;;;;;;16.60;46.40;;;;;;8295477;28;19926;-44
2022/11/23 18:43:05;;;;;;;;;;;16.60;46.40;;;;;;8311121;28;19971;-46
2022/11/23 18:47:05;;;;;;;;;;;16.60;46.40;;;;;;8312845;28;19921;-45
2022/11/23 18:51:10;;;;;;;;;;;16.60;46.40;;;;;;8310117;28;19917;-42
2022/11/23 18:55:10;;;;;;;;;;;16.60;46.30;;;;;;8311607;28;19921;-46
2022/11/23 18:59:13;;;;;;;;;;;16.60;46.40;;;;;;8308167;28;19940;-45
2022/11/23 19:03:13;;;;;;;;;;;16.60;46.40;;;;;;8323566;28;20382;-45
2022/11/23 19:07:14;;;;;;;;;;;16.60;46.40;;;;;;8334856;28;19922;-46
2022/11/23 19:11:16;;;;;;;;;;;16.60;47.00;;;;;;8335442;28;19913;-48
2022/11/23 19:15:17;;;;;;;;;;;16.60;46.40;;;;;;8335024;28;20366;-46
2022/11/23 19:19:17;;;;;;;;;;;16.60;46.40;;;;;;8334406;28;19925;-45
2022/11/23 19:23:18;;;;;;;;;;;16.60;46.50;;;;;;8334988;28;19917;-45
2022/11/23 19:27:18;;;;;;;;;;;16.60;46.50;;;;;;8334746;28;20298;-44
2022/11/23 19:31:20;;;;;;;;;;;16.60;46.50;;;;;;8334370;28;20366;-44
2022/11/23 19:35:20;;;;;;;;;;;16.60;46.50;;;;;;8365105;28;19920;-44
2022/11/23 19:39:21;;;;;;;;;;;16.60;46.50;;;;;;8367406;28;20039;-44
2022/11/23 19:43:21;;;;;;;;;;;16.60;46.50;;;;;;8366728;28;19924;-46
2022/11/23 19:47:22;;;;;;;;;;;16.60;46.50;;;;;;8367213;28;19955;-46
2022/11/23 19:51:23;;;;;;;;;;;16.60;46.50;;;;;;8367366;28;19917;-45
2022/11/23 19:55:23;;;;;;;;;;;16.60;46.60;;;;;;8366602;28;19923;-45
2022/11/23 19:59:24;;;;;;;;;;;16.60;46.60;;;;;;8366686;28;20289;-46
2022/11/23 20:03:25;;;;;;;;;;;16.60;46.60;;;;;;8366312;28;19951;-44
2022/11/23 20:07:25;;;;;;;;;;;16.60;46.60;;;;;;8366616;28;19925;-44
2022/11/23 20:11:27;;;;;;;;;;;16.60;46.60;;;;;;8343675;28;19959;-45
2022/11/23 20:15:27;;;;;;;;;;;16.60;46.60;;;;;;8333023;28;19917;-45
2022/11/23 20:19:28;;;;;;;;;;;16.60;46.60;;;;;;8333125;28;19929;-46
2022/11/23 20:23:29;;;;;;;;;;;16.60;46.60;;;;;;8333285;28;19943;-45
2022/11/23 20:27:29;;;;;;;;;;;16.60;46.70;;;;;;8332551;28;19963;-43
2022/11/23 20:31:30;;;;;;;;;;;16.60;46.70;;;;;;8332890;28;19958;-44
2022/11/23 20:35:31;;;;;;;;;;;16.60;46.70;;;;;;8332933;28;20345;-44
2022/11/23 20:39:31;;;;;;;;;;;16.60;46.70;;;;;;8331904;28;19968;-45
2022/11/23 20:43:32;;;;;;;;;;;16.60;46.60;;;;;;8332604;28;19924;-45
2022/11/23 20:47:32;;;;;;;;;;;16.60;46.70;;;;;;8332212;28;19917;-45
2022/11/23 20:51:32;;;;;;;;;;;16.60;46.70;;;;;;8331835;28;20012;-44
2022/11/23 20:55:33;;;;;;;;;;;16.60;46.70;;;;;;8332112;28;19997;-44
2022/11/23 20:59:34;;;;;;;;;;;16.60;46.70;;;;;;8332011;28;19932;-45
2022/11/23 21:03:35;;;;;;;;;;;16.60;46.80;;;;;;8331355;28;19924;-45
2022/11/23 21:07:35;;;;;;;;;;;16.60;46.80;;;;;;8331539;28;20342;-45
2022/11/23 21:16:02;;;;;;;;;;;16.60;47.30;;;;;;8332234;28;19932;-46
2022/11/23 21:20:03;;;;;;;;;;;16.60;46.80;;;;;;8330642;28;19925;-45
2022/11/23 21:24:04;;;;;;;;;;;16.60;47.30;;;;;;8331228;28;20375;-45
2022/11/23 21:28:04;;;;;;;;;;;16.60;46.80;;;;;;8330521;28;19917;-45
2022/11/23 21:32:05;;;;;;;;;;;16.60;46.70;;;;;;8331205;28;19971;-45
2022/11/23 21:36:06;;;;;;;;;;;16.60;47.30;;;;;;8330832;28;19949;-45
2022/11/23 21:40:07;;;;;;;;;;;16.60;46.70;;;;;;8330178;28;19925;-46
2022/11/23 21:44:08;;;;;;;;;;;16.60;47.30;;;;;;8330815;28;19917;-46
2022/11/23 21:48:09;;;;;;;;;;;16.60;46.70;;;;;;8330963;28;19924;-45
2022/11/23 21:52:09;;;;;;;;;;;16.60;46.70;;;;;;8330295;28;19913;-45
2022/11/23 21:56:11;;;;;;;;;;;16.60;46.70;;;;;;8330567;28;19928;-45
2022/11/23 22:00:12;;;;;;;;;;;16.50;46.70;;;;;;8330271;28;19933;-45
2022/11/23 22:04:14;;;;;;;;;;;16.60;46.70;;;;;;8329762;28;20345;-46
2022/11/23 22:08:14;;;;;;;;;;;16.60;46.70;;;;;;8330516;28;19947;-47
2022/11/23 22:12:14;;;;;;;;;;;16.60;46.70;;;;;;8330206;28;20437;-45
2022/11/23 22:16:19;;;;;;;;;;;16.60;46.70;;;;;;8329491;28;19917;-46
2022/11/23 22:20:19;;;;;;;;;;;16.50;46.70;;;;;;8329699;28;20367;-46
2022/11/23 22:24:21;;;;;;;;;;;16.50;46.70;;;;;;8329854;28;19924;-46
2022/11/23 22:28:21;;;;;;;;;;;16.60;46.70;;;;;;8329419;28;19926;-46
2022/11/23 22:32:22;;;;;;;;;;;16.60;46.70;;;;;;8332006;28;20332;-45
2022/11/23 22:36:23;;;;;;;;;;;16.60;46.70;;;;;;8336205;28;19917;-46
2022/11/23 22:40:23;;;;;;;;;;;16.60;46.70;;;;;;8335737;28;19925;-46
2022/11/23 22:44:23;;;;;;;;;;;16.60;46.80;;;;;;8336184;28;19940;-45
2022/11/23 22:48:24;;;;;;;;;;;16.60;46.70;;;;;;8335730;28;19917;-44
2022/11/23 22:52:24;;;;;;;;;;;16.70;46.70;;;;;;8336092;28;19917;-46
2022/11/23 22:56:25;;;;;;;;;;;16.70;46.70;;;;;;8335673;28;20294;-45
2022/11/23 23:00:26;;;;;;;;;;;16.60;46.70;;;;;;8334394;28;19929;-46
2022/11/23 23:04:26;;;;;;;;;;;16.70;46.70;;;;;;8335043;28;19917;-45
2022/11/23 23:08:27;;;;;;;;;;;16.70;46.70;;;;;;8335331;28;19928;-46
2022/11/23 23:12:27;;;;;;;;;;;16.70;46.70;;;;;;8335055;28;19944;-46
2022/11/23 23:16:28;;;;;;;;;;;16.70;46.70;;;;;;8335094;28;20000;-44
2022/11/23 23:20:29;;;;;;;;;;;16.70;46.70;;;;;;8334968;28;20418;-44
2022/11/23 23:24:29;;;;;;;;;;;16.70;46.70;;;;;;8334500;28;19917;-44
2022/11/23 23:28:30;;;;;;;;;;;16.70;46.70;;;;;;8334763;28;19917;-45
2022/11/23 23:32:30;;;;;;;;;;;16.70;46.70;;;;;;8335165;28;19957;-45
2022/11/23 23:36:31;;;;;;;;;;;16.70;46.70;;;;;;8334112;28;19971;-45